sensor_id;sensor_type;location;lat;lon;timestamp;temperature;humidity
18779;DHT22;9518;51.720;14.384;2023-08-06T00:01:15;15.00;99.90
18779;DHT22;9518;51.720;14.384;2023-08-06T00:03:44;14.90;99.90
18779;DHT22;9518;51.720;14.384;2023-08-06T00:06:11;14.90;99.90
18779;DHT22;9518;51.720;14.384;2023-08-06T00:08:38;14.90;99.90
18779;DHT22;9518;51.720;14.384;2023-08-06T00:11:05;14.90;99.90
18779;DHT22;9518;51.720;14.384;2023-08-06T00:13:31;14.90;99.90
18779;DHT22;9518;51.720;14.384;2023-08-06T00:16:08;14.80;99.90
18779;DHT22;9518;51.720;14.384;2023-08-06T00:18:37;14.90;99.90
18779;DHT22;9518;51.720;14.384;2023-08-06T00:21:04;14.90;99.90
18779;DHT22;9518;51.720;14.384;2023-08-06T00:23:31;14.90;99.90
18779;DHT22;9518;51.720;14.384;2023-08-06T00:25:58;14.90;99.90
18779;DHT22;9518;51.720;14.384;2023-08-06T00:28:25;14.90;99.90
18779;DHT22;9518;51.720;14.384;2023-08-06T00:30:53;14.90;99.90
18779;DHT22;9518;51.720;14.384;2023-08-06T00:33:20;14.80;99.90
18779;DHT22;9518;51.720;14.384;2023-08-06T00:35:49;14.80;99.90
18779;DHT22;9518;51.720;14.384;2023-08-06T00:38:16;14.90;99.90
18779;DHT22;9518;51.720;14.384;2023-08-06T00:40:43;14.90;99.90
18779;DHT22;9518;51.720;14.384;2023-08-06T00:43:10;14.80;99.90
18779;DHT22;9518;51.720;14.384;2023-08-06T00:45:37;14.90;99.90
18779;DHT22;9518;51.720;14.384;2023-08-06T00:48:05;14.80;99.90
18779;DHT22;9518;51.720;14.384;2023-08-06T00:50:33;14.90;99.90
18779;DHT22;9518;51.720;14.384;2023-08-06T00:53:02;14.80;99.90
18779;DHT22;9518;51.720;14.384;2023-08-06T00:55:29;14.90;99.90
18779;DHT22;9518;51.720;14.384;2023-08-06T00:57:56;14.90;99.90
18779;DHT22;9518;51.720;14.384;2023-08-06T01:00:25;14.80;99.90
18779;DHT22;9518;51.720;14.384;2023-08-06T01:02:53;14.80;99.90
18779;DHT22;9518;51.720;14.384;2023-08-06T01:05:20;14.80;99.90
18779;DHT22;9518;51.720;14.384;2023-08-06T01:07:56;14.80;99.90
18779;DHT22;9518;51.720;14.384;2023-08-06T01:10:39;14.80;99.90
18779;DHT22;9518;51.720;14.384;2023-08-06T01:13:14;14.80;99.90
18779;DHT22;9518;51.720;14.384;2023-08-06T01:15:46;14.80;99.90
18779;DHT22;9518;51.720;14.384;2023-08-06T01:18:14;14.80;99.90
18779;DHT22;9518;51.720;14.384;2023-08-06T01:20:42;14.80;99.90
18779;DHT22;9518;51.720;14.384;2023-08-06T01:23:09;14.80;99.90
18779;DHT22;9518;51.720;14.384;2023-08-06T01:25:42;14.80;99.90
18779;DHT22;9518;51.720;14.384;2023-08-06T01:28:18;14.70;99.90
18779;DHT22;9518;51.720;14.384;2023-08-06T01:30:49;14.70;99.90
18779;DHT22;9518;51.720;14.384;2023-08-06T01:33:21;14.70;99.90
18779;DHT22;9518;51.720;14.384;2023-08-06T01:35:51;14.70;99.90
18779;DHT22;9518;51.720;14.384;2023-08-06T01:38:20;14.70;99.90
18779;DHT22;9518;51.720;14.384;2023-08-06T01:40:47;14.80;99.90
18779;DHT22;9518;51.720;14.384;2023-08-06T01:43:14;14.70;99.90
18779;DHT22;9518;51.720;14.384;2023-08-06T01:45:41;14.70;99.90
18779;DHT22;9518;51.720;14.384;2023-08-06T01:48:08;14.70;99.90
18779;DHT22;9518;51.720;14.384;2023-08-06T01:50:34;14.80;99.90
18779;DHT22;9518;51.720;14.384;2023-08-06T01:53:03;14.80;99.90
18779;DHT22;9518;51.720;14.384;2023-08-06T01:55:30;14.70;99.90
18779;DHT22;9518;51.720;14.384;2023-08-06T01:57:57;14.80;99.90
18779;DHT22;9518;51.720;14.384;2023-08-06T02:00:24;14.70;99.90
18779;DHT22;9518;51.720;14.384;2023-08-06T02:02:51;14.70;99.90
18779;DHT22;9518;51.720;14.384;2023-08-06T02:05:17;14.70;99.90
18779;DHT22;9518;51.720;14.384;2023-08-06T02:07:44;14.70;99.90
18779;DHT22;9518;51.720;14.384;2023-08-06T02:10:13;14.70;99.90
18779;DHT22;9518;51.720;14.384;2023-08-06T02:12:40;14.70;99.90
18779;DHT22;9518;51.720;14.384;2023-08-06T02:15:07;14.60;99.90
18779;DHT22;9518;51.720;14.384;2023-08-06T02:17:34;14.70;99.90
18779;DHT22;9518;51.720;14.384;2023-08-06T02:20:01;14.60;99.90
18779;DHT22;9518;51.720;14.384;2023-08-06T02:22:28;14.60;99.90
18779;DHT22;9518;51.720;14.384;2023-08-06T02:24:55;14.70;99.90
18779;DHT22;9518;51.720;14.384;2023-08-06T02:27:23;14.60;99.90
18779;DHT22;9518;51.720;14.384;2023-08-06T02:29:50;14.60;99.90
18779;DHT22;9518;51.720;14.384;2023-08-06T02:32:17;14.70;99.90
18779;DHT22;9518;51.720;14.384;2023-08-06T02:34:44;14.70;99.90
18779;DHT22;9518;51.720;14.384;2023-08-06T02:37:11;14.60;99.90
18779;DHT22;9518;51.720;14.384;2023-08-06T02:39:38;14.60;99.90
18779;DHT22;9518;51.720;14.384;2023-08-06T02:42:06;14.60;99.90
18779;DHT22;9518;51.720;14.384;2023-08-06T02:44:35;14.60;99.90
18779;DHT22;9518;51.720;14.384;2023-08-06T02:47:02;14.50;99.90
18779;DHT22;9518;51.720;14.384;2023-08-06T02:49:29;14.50;99.90
18779;DHT22;9518;51.720;14.384;2023-08-06T02:51:56;14.50;99.90
18779;DHT22;9518;51.720;14.384;2023-08-06T02:54:23;14.50;99.90
18779;DHT22;9518;51.720;14.384;2023-08-06T02:56:50;14.50;99.90
18779;DHT22;9518;51.720;14.384;2023-08-06T02:59:17;14.50;99.90
18779;DHT22;9518;51.720;14.384;2023-08-06T03:01:45;14.50;99.90
18779;DHT22;9518;51.720;14.384;2023-08-06T03:04:12;14.50;99.90
18779;DHT22;9518;51.720;14.384;2023-08-06T03:06:39;14.50;99.90
18779;DHT22;9518;51.720;14.384;2023-08-06T03:09:06;14.50;99.90
18779;DHT22;9518;51.720;14.384;2023-08-06T03:11:33;14.50;99.90
18779;DHT22;9518;51.720;14.384;2023-08-06T03:14:00;14.50;99.90
18779;DHT22;9518;51.720;14.384;2023-08-06T03:16:27;14.50;99.90
18779;DHT22;9518;51.720;14.384;2023-08-06T03:18:55;14.60;99.90
18779;DHT22;9518;51.720;14.384;2023-08-06T03:21:22;14.50;99.90
18779;DHT22;9518;51.720;14.384;2023-08-06T03:23:49;14.50;99.90
18779;DHT22;9518;51.720;14.384;2023-08-06T03:26:16;14.60;99.90
18779;DHT22;9518;51.720;14.384;2023-08-06T03:28:43;14.60;99.90
18779;DHT22;9518;51.720;14.384;2023-08-06T03:31:10;14.70;99.90
18779;DHT22;9518;51.720;14.384;2023-08-06T03:33:37;14.70;99.90
18779;DHT22;9518;51.720;14.384;2023-08-06T03:36:05;14.70;99.90
18779;DHT22;9518;51.720;14.384;2023-08-06T03:38:32;14.60;99.90
18779;DHT22;9518;51.720;14.384;2023-08-06T03:40:59;14.60;99.90
18779;DHT22;9518;51.720;14.384;2023-08-06T03:43:26;14.60;99.90
18779;DHT22;9518;51.720;14.384;2023-08-06T03:45:53;14.60;99.90
18779;DHT22;9518;51.720;14.384;2023-08-06T03:48:20;14.70;99.90
18779;DHT22;9518;51.720;14.384;2023-08-06T03:50:47;14.60;99.90
18779;DHT22;9518;51.720;14.384;2023-08-06T03:53:16;14.80;99.90
18779;DHT22;9518;51.720;14.384;2023-08-06T03:55:43;14.80;99.90
18779;DHT22;9518;51.720;14.384;2023-08-06T03:58:10;14.70;99.90
18779;DHT22;9518;51.720;14.384;2023-08-06T04:00:37;14.70;99.90
18779;DHT22;9518;51.720;14.384;2023-08-06T04:03:03;14.80;99.90
18779;DHT22;9518;51.720;14.384;2023-08-06T04:05:31;14.70;99.90
18779;DHT22;9518;51.720;14.384;2023-08-06T04:07:58;14.70;99.90
18779;DHT22;9518;51.720;14.384;2023-08-06T04:10:27;14.70;99.90
18779;DHT22;9518;51.720;14.384;2023-08-06T04:12:54;14.80;99.90
18779;DHT22;9518;51.720;14.384;2023-08-06T04:15:21;14.80;99.90
18779;DHT22;9518;51.720;14.384;2023-08-06T04:17:48;14.90;99.90
18779;DHT22;9518;51.720;14.384;2023-08-06T04:20:15;14.80;99.90
18779;DHT22;9518;51.720;14.384;2023-08-06T04:22:42;14.80;99.90
18779;DHT22;9518;51.720;14.384;2023-08-06T04:25:09;14.80;99.90
18779;DHT22;9518;51.720;14.384;2023-08-06T04:27:38;14.80;99.90
18779;DHT22;9518;51.720;14.384;2023-08-06T04:30:07;14.80;99.90
18779;DHT22;9518;51.720;14.384;2023-08-06T04:32:34;14.80;99.90
18779;DHT22;9518;51.720;14.384;2023-08-06T04:35:01;14.80;99.90
18779;DHT22;9518;51.720;14.384;2023-08-06T04:37:28;14.80;99.90
18779;DHT22;9518;51.720;14.384;2023-08-06T04:39:55;14.80;99.90
18779;DHT22;9518;51.720;14.384;2023-08-06T04:42:22;14.80;99.90
18779;DHT22;9518;51.720;14.384;2023-08-06T04:44:51;14.90;99.90
18779;DHT22;9518;51.720;14.384;2023-08-06T04:47:18;14.90;99.90
18779;DHT22;9518;51.720;14.384;2023-08-06T04:49:45;14.80;99.90
18779;DHT22;9518;51.720;14.384;2023-08-06T04:52:12;14.80;99.90
18779;DHT22;9518;51.720;14.384;2023-08-06T04:54:39;14.80;99.90
18779;DHT22;9518;51.720;14.384;2023-08-06T04:57:06;14.80;99.90
18779;DHT22;9518;51.720;14.384;2023-08-06T04:59:33;14.90;99.90
18779;DHT22;9518;51.720;14.384;2023-08-06T05:02:02;14.90;99.90
18779;DHT22;9518;51.720;14.384;2023-08-06T05:04:29;14.90;99.90
18779;DHT22;9518;51.720;14.384;2023-08-06T05:06:56;14.90;99.90
18779;DHT22;9518;51.720;14.384;2023-08-06T05:09:23;14.90;99.90
18779;DHT22;9518;51.720;14.384;2023-08-06T05:11:50;14.90;99.90
18779;DHT22;9518;51.720;14.384;2023-08-06T05:14:17;14.80;99.90
18779;DHT22;9518;51.720;14.384;2023-08-06T05:16:44;14.80;99.90
18779;DHT22;9518;51.720;14.384;2023-08-06T05:19:12;14.80;99.90
18779;DHT22;9518;51.720;14.384;2023-08-06T05:21:39;14.80;99.90
18779;DHT22;9518;51.720;14.384;2023-08-06T05:24:06;14.80;99.90
18779;DHT22;9518;51.720;14.384;2023-08-06T05:26:33;14.80;99.90
18779;DHT22;9518;51.720;14.384;2023-08-06T05:29:00;14.80;99.90
18779;DHT22;9518;51.720;14.384;2023-08-06T05:31:27;14.80;99.90
18779;DHT22;9518;51.720;14.384;2023-08-06T05:33:54;14.90;99.90
18779;DHT22;9518;51.720;14.384;2023-08-06T05:36:23;15.00;99.90
18779;DHT22;9518;51.720;14.384;2023-08-06T05:38:50;14.90;99.90
18779;DHT22;9518;51.720;14.384;2023-08-06T05:41:17;14.80;99.90
18779;DHT22;9518;51.720;14.384;2023-08-06T05:43:44;14.90;99.90
18779;DHT22;9518;51.720;14.384;2023-08-06T05:46:10;14.80;99.90
18779;DHT22;9518;51.720;14.384;2023-08-06T05:48:37;14.90;99.90
18779;DHT22;9518;51.720;14.384;2023-08-06T05:51:06;14.90;99.90
18779;DHT22;9518;51.720;14.384;2023-08-06T05:53:35;15.00;99.90
18779;DHT22;9518;51.720;14.384;2023-08-06T05:56:02;14.90;99.90
18779;DHT22;9518;51.720;14.384;2023-08-06T05:58:29;14.90;99.90
18779;DHT22;9518;51.720;14.384;2023-08-06T06:00:56;14.90;99.90
18779;DHT22;9518;51.720;14.384;2023-08-06T06:03:23;14.90;99.90
18779;DHT22;9518;51.720;14.384;2023-08-06T06:05:50;14.90;99.90
18779;DHT22;9518;51.720;14.384;2023-08-06T06:08:17;14.90;99.90
18779;DHT22;9518;51.720;14.384;2023-08-06T06:10:45;14.90;99.90
18779;DHT22;9518;51.720;14.384;2023-08-06T06:13:12;14.90;99.90
18779;DHT22;9518;51.720;14.384;2023-08-06T06:15:39;14.90;99.90
18779;DHT22;9518;51.720;14.384;2023-08-06T06:18:06;14.90;99.90
18779;DHT22;9518;51.720;14.384;2023-08-06T06:20:33;14.80;99.90
18779;DHT22;9518;51.720;14.384;2023-08-06T06:23:00;14.80;99.90
18779;DHT22;9518;51.720;14.384;2023-08-06T06:25:27;14.90;99.90
18779;DHT22;9518;51.720;14.384;2023-08-06T06:27:55;14.90;99.90
18779;DHT22;9518;51.720;14.384;2023-08-06T06:30:24;14.90;99.90
18779;DHT22;9518;51.720;14.384;2023-08-06T06:32:51;14.90;99.90
18779;DHT22;9518;51.720;14.384;2023-08-06T06:35:18;15.00;99.90
18779;DHT22;9518;51.720;14.384;2023-08-06T06:37:45;15.00;99.90
18779;DHT22;9518;51.720;14.384;2023-08-06T06:40:12;15.00;99.90
18779;DHT22;9518;51.720;14.384;2023-08-06T06:42:39;15.00;99.90
18779;DHT22;9518;51.720;14.384;2023-08-06T06:45:09;15.00;99.90
18779;DHT22;9518;51.720;14.384;2023-08-06T06:47:36;15.00;99.90
18779;DHT22;9518;51.720;14.384;2023-08-06T06:50:03;15.10;99.90
18779;DHT22;9518;51.720;14.384;2023-08-06T06:52:30;15.10;99.90
18779;DHT22;9518;51.720;14.384;2023-08-06T06:54:57;15.10;99.90
18779;DHT22;9518;51.720;14.384;2023-08-06T06:57:24;15.00;99.90
18779;DHT22;9518;51.720;14.384;2023-08-06T06:59:51;15.10;99.90
18779;DHT22;9518;51.720;14.384;2023-08-06T07:02:19;15.10;99.90
18779;DHT22;9518;51.720;14.384;2023-08-06T07:04:46;15.20;99.90
18779;DHT22;9518;51.720;14.384;2023-08-06T07:07:13;15.20;99.90
18779;DHT22;9518;51.720;14.384;2023-08-06T07:09:40;15.10;99.90
18779;DHT22;9518;51.720;14.384;2023-08-06T07:12:08;15.10;99.90
18779;DHT22;9518;51.720;14.384;2023-08-06T07:14:35;15.20;99.90
18779;DHT22;9518;51.720;14.384;2023-08-06T07:17:02;15.30;99.90
18779;DHT22;9518;51.720;14.384;2023-08-06T07:19:30;15.30;99.90
18779;DHT22;9518;51.720;14.384;2023-08-06T07:21:57;15.20;99.90
18779;DHT22;9518;51.720;14.384;2023-08-06T07:24:24;15.20;99.90
18779;DHT22;9518;51.720;14.384;2023-08-06T07:26:51;15.10;99.90
18779;DHT22;9518;51.720;14.384;2023-08-06T07:29:19;15.10;99.90
18779;DHT22;9518;51.720;14.384;2023-08-06T07:31:48;15.10;99.90
18779;DHT22;9518;51.720;14.384;2023-08-06T07:34:15;15.20;99.90
18779;DHT22;9518;51.720;14.384;2023-08-06T07:36:45;15.20;99.90
18779;DHT22;9518;51.720;14.384;2023-08-06T07:39:12;15.30;99.90
18779;DHT22;9518;51.720;14.384;2023-08-06T07:41:39;15.40;99.90
18779;DHT22;9518;51.720;14.384;2023-08-06T07:44:07;15.50;99.90
18779;DHT22;9518;51.720;14.384;2023-08-06T07:46:34;15.50;99.90
18779;DHT22;9518;51.720;14.384;2023-08-06T07:49:01;15.50;99.90
18779;DHT22;9518;51.720;14.384;2023-08-06T07:51:28;15.50;99.90
18779;DHT22;9518;51.720;14.384;2023-08-06T07:53:56;15.60;99.90
18779;DHT22;9518;51.720;14.384;2023-08-06T07:56:23;15.60;99.90
18779;DHT22;9518;51.720;14.384;2023-08-06T07:58:50;15.70;99.90
18779;DHT22;9518;51.720;14.384;2023-08-06T08:01:17;15.70;99.90
18779;DHT22;9518;51.720;14.384;2023-08-06T08:03:44;15.70;99.90
18779;DHT22;9518;51.720;14.384;2023-08-06T08:06:12;15.80;99.90
18779;DHT22;9518;51.720;14.384;2023-08-06T08:08:39;15.80;99.90
18779;DHT22;9518;51.720;14.384;2023-08-06T08:11:07;15.70;99.90
18779;DHT22;9518;51.720;14.384;2023-08-06T08:13:34;15.80;99.90
18779;DHT22;9518;51.720;14.384;2023-08-06T08:16:02;15.90;99.90
18779;DHT22;9518;51.720;14.384;2023-08-06T08:18:29;15.80;99.90
18779;DHT22;9518;51.720;14.384;2023-08-06T08:20:57;16.00;99.90
18779;DHT22;9518;51.720;14.384;2023-08-06T08:23:24;16.00;99.90
18779;DHT22;9518;51.720;14.384;2023-08-06T08:25:51;16.00;99.90
18779;DHT22;9518;51.720;14.384;2023-08-06T08:28:19;16.00;99.90
18779;DHT22;9518;51.720;14.384;2023-08-06T08:30:46;16.10;99.90
18779;DHT22;9518;51.720;14.384;2023-08-06T08:33:13;16.10;99.90
18779;DHT22;9518;51.720;14.384;2023-08-06T08:35:41;16.10;99.90
18779;DHT22;9518;51.720;14.384;2023-08-06T08:38:08;16.00;99.90
18779;DHT22;9518;51.720;14.384;2023-08-06T08:40:38;16.00;99.90
18779;DHT22;9518;51.720;14.384;2023-08-06T08:43:08;15.90;99.90
18779;DHT22;9518;51.720;14.384;2023-08-06T08:45:39;15.80;99.90
18779;DHT22;9518;51.720;14.384;2023-08-06T08:48:06;15.80;99.90
18779;DHT22;9518;51.720;14.384;2023-08-06T08:50:34;15.80;99.90
18779;DHT22;9518;51.720;14.384;2023-08-06T08:53:01;15.90;99.90
18779;DHT22;9518;51.720;14.384;2023-08-06T08:55:28;15.90;99.90
18779;DHT22;9518;51.720;14.384;2023-08-06T08:57:55;15.90;99.90
18779;DHT22;9518;51.720;14.384;2023-08-06T09:00:22;16.00;99.90
18779;DHT22;9518;51.720;14.384;2023-08-06T09:02:51;16.00;99.90
18779;DHT22;9518;51.720;14.384;2023-08-06T09:05:20;16.00;99.90
18779;DHT22;9518;51.720;14.384;2023-08-06T09:07:49;16.00;99.90
18779;DHT22;9518;51.720;14.384;2023-08-06T09:10:17;16.00;99.90
18779;DHT22;9518;51.720;14.384;2023-08-06T09:12:45;16.10;99.90
18779;DHT22;9518;51.720;14.384;2023-08-06T09:15:13;16.10;99.90
18779;DHT22;9518;51.720;14.384;2023-08-06T09:17:40;16.20;99.90
18779;DHT22;9518;51.720;14.384;2023-08-06T09:20:13;16.20;99.90
18779;DHT22;9518;51.720;14.384;2023-08-06T09:22:41;16.30;99.90
18779;DHT22;9518;51.720;14.384;2023-08-06T09:25:08;16.40;99.90
18779;DHT22;9518;51.720;14.384;2023-08-06T09:27:36;16.50;99.90
18779;DHT22;9518;51.720;14.384;2023-08-06T09:30:04;16.30;99.90
18779;DHT22;9518;51.720;14.384;2023-08-06T09:32:45;16.40;99.90
18779;DHT22;9518;51.720;14.384;2023-08-06T09:35:17;16.30;99.90
18779;DHT22;9518;51.720;14.384;2023-08-06T09:37:44;16.40;99.90
18779;DHT22;9518;51.720;14.384;2023-08-06T09:40:25;16.40;99.90
18779;DHT22;9518;51.720;14.384;2023-08-06T09:42:53;16.40;99.90
18779;DHT22;9518;51.720;14.384;2023-08-06T09:45:20;16.40;99.90
18779;DHT22;9518;51.720;14.384;2023-08-06T09:47:48;16.50;99.90
18779;DHT22;9518;51.720;14.384;2023-08-06T09:50:18;16.50;99.90
18779;DHT22;9518;51.720;14.384;2023-08-06T09:52:47;16.40;99.90
18779;DHT22;9518;51.720;14.384;2023-08-06T09:55:15;16.60;99.90
18779;DHT22;9518;51.720;14.384;2023-08-06T09:57:42;16.70;99.90
18779;DHT22;9518;51.720;14.384;2023-08-06T10:00:10;16.70;99.90
18779;DHT22;9518;51.720;14.384;2023-08-06T10:02:39;16.60;99.90
18779;DHT22;9518;51.720;14.384;2023-08-06T10:05:07;16.60;99.90
18779;DHT22;9518;51.720;14.384;2023-08-06T10:07:36;16.60;99.90
18779;DHT22;9518;51.720;14.384;2023-08-06T10:10:05;16.50;99.90
18779;DHT22;9518;51.720;14.384;2023-08-06T10:12:35;16.50;99.90
18779;DHT22;9518;51.720;14.384;2023-08-06T10:15:08;16.40;99.90
18779;DHT22;9518;51.720;14.384;2023-08-06T10:17:36;16.40;99.90
18779;DHT22;9518;51.720;14.384;2023-08-06T10:20:05;16.50;99.90
18779;DHT22;9518;51.720;14.384;2023-08-06T10:22:34;16.60;99.90
18779;DHT22;9518;51.720;14.384;2023-08-06T10:25:03;16.50;99.90
18779;DHT22;9518;51.720;14.384;2023-08-06T10:27:33;16.40;99.90
18779;DHT22;9518;51.720;14.384;2023-08-06T10:30:23;16.40;99.90
18779;DHT22;9518;51.720;14.384;2023-08-06T10:32:52;16.50;99.90
18779;DHT22;9518;51.720;14.384;2023-08-06T10:35:29;16.50;99.90
18779;DHT22;9518;51.720;14.384;2023-08-06T10:38:03;16.70;99.90
18779;DHT22;9518;51.720;14.384;2023-08-06T10:40:33;16.80;99.90
18779;DHT22;9518;51.720;14.384;2023-08-06T10:43:00;16.80;99.90
18779;DHT22;9518;51.720;14.384;2023-08-06T10:45:27;16.70;99.90
18779;DHT22;9518;51.720;14.384;2023-08-06T10:47:56;16.70;99.90
18779;DHT22;9518;51.720;14.384;2023-08-06T10:50:24;16.60;99.90
18779;DHT22;9518;51.720;14.384;2023-08-06T10:52:51;16.50;99.90
18779;DHT22;9518;51.720;14.384;2023-08-06T10:55:26;16.70;99.90
18779;DHT22;9518;51.720;14.384;2023-08-06T10:57:55;16.70;99.90
18779;DHT22;9518;51.720;14.384;2023-08-06T11:00:23;16.80;99.90
18779;DHT22;9518;51.720;14.384;2023-08-06T11:02:51;16.80;99.90
18779;DHT22;9518;51.720;14.384;2023-08-06T11:05:19;16.70;99.90
18779;DHT22;9518;51.720;14.384;2023-08-06T11:07:46;16.80;99.90
18779;DHT22;9518;51.720;14.384;2023-08-06T11:10:15;16.80;99.90
18779;DHT22;9518;51.720;14.384;2023-08-06T11:12:42;16.90;99.90
18779;DHT22;9518;51.720;14.384;2023-08-06T11:15:10;16.90;99.90
18779;DHT22;9518;51.720;14.384;2023-08-06T11:17:40;16.80;99.90
18779;DHT22;9518;51.720;14.384;2023-08-06T11:20:08;16.70;99.90
18779;DHT22;9518;51.720;14.384;2023-08-06T11:22:36;16.50;99.90
18779;DHT22;9518;51.720;14.384;2023-08-06T11:25:05;16.40;99.90
18779;DHT22;9518;51.720;14.384;2023-08-06T11:27:32;16.40;99.90
18779;DHT22;9518;51.720;14.384;2023-08-06T11:29:59;16.30;99.90
18779;DHT22;9518;51.720;14.384;2023-08-06T11:32:28;16.40;99.90
18779;DHT22;9518;51.720;14.384;2023-08-06T11:34:56;16.40;99.90
18779;DHT22;9518;51.720;14.384;2023-08-06T11:37:23;16.40;99.90
18779;DHT22;9518;51.720;14.384;2023-08-06T11:39:51;16.50;99.90
18779;DHT22;9518;51.720;14.384;2023-08-06T11:42:18;16.50;99.90
18779;DHT22;9518;51.720;14.384;2023-08-06T11:44:45;16.60;99.90
18779;DHT22;9518;51.720;14.384;2023-08-06T11:47:14;16.60;99.90
18779;DHT22;9518;51.720;14.384;2023-08-06T11:49:45;16.40;99.90
18779;DHT22;9518;51.720;14.384;2023-08-06T11:52:17;16.30;99.90
18779;DHT22;9518;51.720;14.384;2023-08-06T11:54:46;16.20;99.90
18779;DHT22;9518;51.720;14.384;2023-08-06T11:57:13;16.10;99.90
18779;DHT22;9518;51.720;14.384;2023-08-06T11:59:41;16.10;99.90
18779;DHT22;9518;51.720;14.384;2023-08-06T12:02:09;16.00;99.90
18779;DHT22;9518;51.720;14.384;2023-08-06T12:05:00;16.10;99.90
18779;DHT22;9518;51.720;14.384;2023-08-06T12:07:32;16.10;99.90
18779;DHT22;9518;51.720;14.384;2023-08-06T12:09:59;16.20;99.90
18779;DHT22;9518;51.720;14.384;2023-08-06T12:12:26;16.20;99.90
18779;DHT22;9518;51.720;14.384;2023-08-06T12:14:53;16.10;99.90
18779;DHT22;9518;51.720;14.384;2023-08-06T12:17:20;16.10;99.90
18779;DHT22;9518;51.720;14.384;2023-08-06T12:19:47;16.10;99.90
18779;DHT22;9518;51.720;14.384;2023-08-06T12:22:16;16.10;99.90
18779;DHT22;9518;51.720;14.384;2023-08-06T12:24:45;16.10;99.90
18779;DHT22;9518;51.720;14.384;2023-08-06T12:27:12;16.10;99.90
18779;DHT22;9518;51.720;14.384;2023-08-06T12:29:41;16.10;99.90
18779;DHT22;9518;51.720;14.384;2023-08-06T12:32:09;16.10;99.90
18779;DHT22;9518;51.720;14.384;2023-08-06T12:34:37;16.10;99.90
18779;DHT22;9518;51.720;14.384;2023-08-06T12:37:04;16.20;99.90
18779;DHT22;9518;51.720;14.384;2023-08-06T12:39:33;16.40;99.90
18779;DHT22;9518;51.720;14.384;2023-08-06T12:42:01;16.30;99.90
18779;DHT22;9518;51.720;14.384;2023-08-06T12:44:28;16.40;99.90
18779;DHT22;9518;51.720;14.384;2023-08-06T12:46:55;16.30;99.90
18779;DHT22;9518;51.720;14.384;2023-08-06T12:49:22;16.40;99.90
18779;DHT22;9518;51.720;14.384;2023-08-06T12:51:50;16.30;99.90
18779;DHT22;9518;51.720;14.384;2023-08-06T12:54:18;16.30;99.90
18779;DHT22;9518;51.720;14.384;2023-08-06T12:56:47;16.30;99.90
18779;DHT22;9518;51.720;14.384;2023-08-06T12:59:16;16.30;99.90
18779;DHT22;9518;51.720;14.384;2023-08-06T13:01:44;16.30;99.90
18779;DHT22;9518;51.720;14.384;2023-08-06T13:04:11;16.30;99.90
18779;DHT22;9518;51.720;14.384;2023-08-06T13:06:38;16.40;99.90
18779;DHT22;9518;51.720;14.384;2023-08-06T13:09:06;16.40;99.90
18779;DHT22;9518;51.720;14.384;2023-08-06T13:11:34;16.40;99.90
18779;DHT22;9518;51.720;14.384;2023-08-06T13:14:07;16.50;99.90
18779;DHT22;9518;51.720;14.384;2023-08-06T13:16:35;16.60;99.90
18779;DHT22;9518;51.720;14.384;2023-08-06T13:19:03;16.70;99.90
18779;DHT22;9518;51.720;14.384;2023-08-06T13:21:32;16.80;99.90
18779;DHT22;9518;51.720;14.384;2023-08-06T13:24:00;16.80;99.90
18779;DHT22;9518;51.720;14.384;2023-08-06T13:26:28;16.90;99.90
18779;DHT22;9518;51.720;14.384;2023-08-06T13:28:56;17.00;99.90
18779;DHT22;9518;51.720;14.384;2023-08-06T13:31:25;16.80;99.90
18779;DHT22;9518;51.720;14.384;2023-08-06T13:33:53;16.80;99.90
18779;DHT22;9518;51.720;14.384;2023-08-06T13:36:21;16.70;99.90
18779;DHT22;9518;51.720;14.384;2023-08-06T13:38:48;16.60;99.90
18779;DHT22;9518;51.720;14.384;2023-08-06T13:41:15;16.60;99.90
18779;DHT22;9518;51.720;14.384;2023-08-06T13:43:42;16.60;99.90
18779;DHT22;9518;51.720;14.384;2023-08-06T13:46:10;16.60;99.90
18779;DHT22;9518;51.720;14.384;2023-08-06T13:48:44;16.60;99.90
18779;DHT22;9518;51.720;14.384;2023-08-06T13:51:11;16.80;99.90
18779;DHT22;9518;51.720;14.384;2023-08-06T13:53:39;16.80;99.90
18779;DHT22;9518;51.720;14.384;2023-08-06T13:56:06;16.90;99.90
18779;DHT22;9518;51.720;14.384;2023-08-06T13:58:35;16.80;99.90
18779;DHT22;9518;51.720;14.384;2023-08-06T14:01:02;16.70;99.90
18779;DHT22;9518;51.720;14.384;2023-08-06T14:03:29;16.80;99.90
18779;DHT22;9518;51.720;14.384;2023-08-06T14:05:57;16.80;99.90
18779;DHT22;9518;51.720;14.384;2023-08-06T14:08:24;16.70;99.90
18779;DHT22;9518;51.720;14.384;2023-08-06T14:10:52;16.70;99.90
18779;DHT22;9518;51.720;14.384;2023-08-06T14:13:18;16.70;99.90
18779;DHT22;9518;51.720;14.384;2023-08-06T14:15:45;16.60;99.90
18779;DHT22;9518;51.720;14.384;2023-08-06T14:18:12;16.50;99.90
18779;DHT22;9518;51.720;14.384;2023-08-06T14:20:40;16.40;99.90
18779;DHT22;9518;51.720;14.384;2023-08-06T14:23:09;16.40;99.90
18779;DHT22;9518;51.720;14.384;2023-08-06T14:25:36;16.40;99.90
18779;DHT22;9518;51.720;14.384;2023-08-06T14:28:03;16.50;99.90
18779;DHT22;9518;51.720;14.384;2023-08-06T14:30:32;16.60;99.90
18779;DHT22;9518;51.720;14.384;2023-08-06T14:32:59;16.50;99.90
18779;DHT22;9518;51.720;14.384;2023-08-06T14:35:27;16.60;99.90
18779;DHT22;9518;51.720;14.384;2023-08-06T14:37:55;16.60;99.90
18779;DHT22;9518;51.720;14.384;2023-08-06T14:40:23;16.70;99.90
18779;DHT22;9518;51.720;14.384;2023-08-06T14:42:51;16.80;99.90
18779;DHT22;9518;51.720;14.384;2023-08-06T14:45:18;16.90;99.90
18779;DHT22;9518;51.720;14.384;2023-08-06T14:47:45;16.90;99.90
18779;DHT22;9518;51.720;14.384;2023-08-06T14:50:13;16.80;99.90
18779;DHT22;9518;51.720;14.384;2023-08-06T14:52:40;16.70;99.90
18779;DHT22;9518;51.720;14.384;2023-08-06T14:55:07;16.70;99.90
18779;DHT22;9518;51.720;14.384;2023-08-06T14:57:36;16.70;99.90
18779;DHT22;9518;51.720;14.384;2023-08-06T15:00:03;16.70;99.90
18779;DHT22;9518;51.720;14.384;2023-08-06T15:02:32;16.80;99.90
18779;DHT22;9518;51.720;14.384;2023-08-06T15:04:59;16.80;99.90
18779;DHT22;9518;51.720;14.384;2023-08-06T15:07:26;16.80;99.90
18779;DHT22;9518;51.720;14.384;2023-08-06T15:09:54;16.80;99.90
18779;DHT22;9518;51.720;14.384;2023-08-06T15:12:21;16.80;99.90
18779;DHT22;9518;51.720;14.384;2023-08-06T15:14:50;16.80;99.90
18779;DHT22;9518;51.720;14.384;2023-08-06T15:17:17;16.80;99.90
18779;DHT22;9518;51.720;14.384;2023-08-06T15:19:44;16.70;99.90
18779;DHT22;9518;51.720;14.384;2023-08-06T15:22:11;16.70;99.90
18779;DHT22;9518;51.720;14.384;2023-08-06T15:24:38;16.70;99.90
18779;DHT22;9518;51.720;14.384;2023-08-06T15:27:07;16.50;99.90
18779;DHT22;9518;51.720;14.384;2023-08-06T15:29:35;16.50;99.90
18779;DHT22;9518;51.720;14.384;2023-08-06T15:32:04;16.50;99.90
18779;DHT22;9518;51.720;14.384;2023-08-06T15:34:31;16.50;99.90